• Join FlightAware (Why Join?)
  • Login
  • US Flag 
09:55AM EST


 

Airport Tracker/Info


-or-


 

Live Flight TrackerFlight Track Log ✈ OPT452 ✈ 18-Apr-2013 ✈ KJAX - KAHN

Flight Track Log - Related Links

Times and Time Zones

All times are in EDT time to prevent confusion due to time zone crossing. See the OPT452 flight status page for this flight to view local times or setup timezone preferences in your user account.

Time Position Orientation Groundspeed Altitude Reporting Facility
EDT Latitude Longitude Course Direction KTS MPH feet Rate Location/Type
08:59AM 30.5028 -81.6750 13° North 170 196 800  Level Jacksonville Center
09:00AM 30.5486 -81.6625 13° North 228 262 4,500 3,300 Climbing Jacksonville Center
09:01AM 30.5844 -81.7006 318° Northwest 233 268 6,900 2,400 Climbing Jacksonville Center
09:02AM 30.6436 -81.7528 323° Northwest 247 284 8,900 2,160 Climbing Jacksonville Center
09:03AM 30.7128 -81.8075 326° Northwest 273 314 11,300 2,100 Climbing Jacksonville Center
09:04AM 30.7822 -81.8575 328° Northwest 294 338 13,200 2,100 Climbing Jacksonville Center
09:05AM 30.8661 -81.9028 335° Northwest 311 358 15,600 2,280 Climbing Jacksonville Center
09:06AM 30.9458 -81.9381 339° North 311 358 17,800 1,860 Climbing Jacksonville Center
09:07AM 31.0317 -81.9786 338° Northwest 317 365 19,400 1,500 Climbing Jacksonville Center
09:08AM 31.1092 -82.0167 337° Northwest 326 375 20,900 1,500 Climbing Jacksonville Center
09:09AM 31.2033 -82.0569 340° North 339 390 22,400 1,500 Climbing Jacksonville Center
09:10AM 31.2975 -82.0975 340° North 352 405 23,900 780 Climbing Jacksonville Center
09:11AM 31.3939 -82.1453 337° Northwest 371 427 24,000  Climbing Jacksonville Center
09:12AM 31.5133 -82.1981 339° North 404 465 24,000  Level Jacksonville Center
09:14AM 31.7344 -82.2978 339° North 431 496 24,000  Level Atlanta Center
09:15AM 31.8414 -82.3472 339° North 420 483 24,000  Level Atlanta Center
09:16AM 31.9486 -82.3942 340° North 414 476 24,000  Level Atlanta Center
09:17AM 32.0556 -82.4436 339° North 414 476 24,000  Level Atlanta Center
09:18AM 32.1606 -82.4908 339° North 414 476 24,000  Level Atlanta Center
09:19AM 32.2656 -82.5356 340° North 414 476 24,000  Level Atlanta Center
09:20AM 32.3703 -82.5781 341° North 408 470 24,000  Level Atlanta Center
09:21AM 32.4817 -82.6378 336° Northwest 408 470 24,000 -180 Level Atlanta Center
09:22AM 32.5825 -82.6856 338° Northwest 413 475 23,700 -540 Descending Atlanta Center
09:23AM 32.6914 -82.7356 339° North 408 470 23,000 -360 Descending Atlanta Center
09:24AM 32.7983 -82.7836 339° North 413 475 23,000 -240 Level Atlanta Center
09:25AM 32.9033 -82.8339 338° Northwest 413 475 22,600 -1,080 Descending Atlanta Center
09:26AM 33.0061 -82.8819 339° North 413 475 20,900 -1,980 Descending Atlanta Center
09:27AM 33.1108 -82.9328 338° Northwest 407 468 18,700 -2,220 Descending Atlanta Center
09:28AM 33.2156 -82.9786 340° North 407 468 16,500 -2,220 Descending Atlanta Center
09:29AM 33.3183 -83.0269 339° North 396 456 14,300 -1,740 Descending Atlanta Center
09:30AM 33.4125 -83.0708 339° North 378 435 13,100 -1,080 Descending Atlanta Center
09:31AM 33.5089 -83.1169 338° Northwest 364 419 12,200 -1,080 Descending Atlanta Center
09:32AM 33.5992 -83.1633 337° Northwest 359 413 11,000 -1,380 Descending Atlanta Center
09:33AM 33.6828 -83.2025 339° North 344 396 9,500 -1,740 Descending Atlanta Center
09:34AM 33.7603 -83.2392 339° North 320 368 7,600 -2,160 Descending Atlanta Center
09:35AM 33.8356 -83.2736 339° North 294 338 5,200 -2,340 Descending Atlanta Center
09:36AM 33.8592 -83.3433 292° West 252 290 3,000 -1,380 Descending Atlanta Center
09:37AM 33.8969 -83.3906 314° West 210 242 2,500 -660 Descending Atlanta Center
09:39AM 33.9500 -83.3667 20° North 125 144 1,200 420 Descending Atlanta TRACON
09:40AM 33.9556 -83.4403 275° West 75 86 3,900 2,460 Climbing Atlanta Center